Walleye — V7GU7 — position and weather

sailwx.info

Track history (hours):
 
Tides and Currents Weather Stations Pressure Air Temp Water Temp Dewpoint Dewpoint Depression Visibility Wind Speed Wind Dir Waves Ship Positions

Walleye

Last reported at 2018-Feb-09 02:30 UTC. Time now 2018-Feb-17 21:16 UTC.
Position N 28°30' W 015°52'.
Warning: this ship's position is 8 days out of date.

Length 228 m; draft 13 m.

Type: Tanker. MMSI: 538005764.

Date/timePositionNaut miles runAvg speedWind from/ knotsBaromVisibWave heightAir tempDewpointWater temp
2018-Feb-09 02:30N 28°30' W 015°52'1912.5
2018-Feb-09 01:00N 28°45' W 015°39'1312.6
2018-Feb-09 00:00N 28°56' W 015°33'  
2018-Feb-04 04:38N 49°46' W 003°39'213.5
2018-Feb-04 04:30N 49°47' W 003°36'714.0
2018-Feb-04 04:00N 49°51' W 003°27'714.5
2018-Feb-04 03:30N 49°55' W 003°18'714.8
2018-Feb-04 03:00N 49°58' W 003°07'714.4
2018-Feb-04 02:30N 49°59' W 002°56'714.2
2018-Feb-04 02:01N 50°01' W 002°46'713.5
2018-Feb-04 01:30N 50°03' W 002°35'2910.6
2018-Feb-03 22:49N 50°10' W 001°52'3 8.6
2018-Feb-03 22:30N 50°11' W 001°48'4 8.5
2018-Feb-03 22:00N 50°12' W 001°42'4 8.7
2018-Feb-03 21:30N 50°13' W 001°35'5 9.2
2018-Feb-03 21:00N 50°14' W 001°28'510.1
2018-Feb-03 20:29N 50°16' W 001°21'3213.4
2018-Feb-03 18:05N 50°25' W 000°32'215.1
2018-Feb-03 17:56N 50°25' W 000°29'614.7
2018-Feb-03 17:30N 50°27' W 000°19'714.5
2018-Feb-03 17:00N 50°29' W 000°08'1414.2
2018-Feb-03 16:00N 50°33' E 000°13'713.7
2018-Feb-03 15:30N 50°35' E 000°24'713.0
2018-Feb-03 15:00N 50°36' E 000°33'612.3
2018-Feb-03 14:30N 50°39' E 000°42'611.7
2018-Feb-03 14:00N 50°43' E 000°49'510.9
2018-Feb-03 13:30N 50°46' E 000°56'710.5
2018-Feb-03 12:51N 50°50' E 001°05'410.5
2018-Feb-03 12:27N 50°53' E 001°10'510.4
2018-Feb-03 12:00N 50°56' E 001°15'510.8
2018-Feb-03 11:30N 51°01' E 001°21'612.7
2018-Feb-03 11:01N 51°04' E 001°29'714.4
2018-Feb-03 10:31N 51°09' E 001°37'714.7
2018-Feb-03 10:01N 51°14' E 001°46'714.6
2018-Feb-03 09:31N 51°20' E 001°51'713.9
2018-Feb-03 09:00N 51°26' E 001°57'713.2
2018-Feb-03 08:30N 51°32' E 002°03'612.9
2018-Feb-03 08:00N 51°36' E 002°10'5011.0
2018-Feb-03 03:25N 52°15' E 003°04'1511.0
2018-Feb-03 02:00N 52°26' E 003°20'2311.5
2018-Feb-03 00:03N 52°31' E 003°56'112.2
2018-Feb-02 23:57N 52°31' E 003°58'512.3
2018-Feb-02 23:30N 52°31' E 004°07'611.7
2018-Feb-02 23:00N 52°30' E 004°17'510.6
2018-Feb-02 22:30N 52°29' E 004°25'4 8.8
2018-Feb-02 22:00N 52°28' E 004°32'3 5.4
2018-Feb-02 21:30N 52°28' E 004°36'0 0.3
2018-Feb-02 21:01N 52°28' E 004°37'2 3.4
2018-Feb-02 20:30N 52°28' E 004°39'4 7.2
2018-Feb-02 20:01N 52°26' E 004°44'1 1.1
2018-Feb-02 18:59N 52°25' E 004°45'0 0.0
2018-Feb-02 18:26N 52°25' E 004°45'0 0.0
2018-Feb-02 18:01N 52°25' E 004°45'0 0.0
2018-Feb-02 17:31N 52°25' E 004°45'0 0.0
2018-Feb-02 16:59N 52°25' E 004°45'0 0.0
2018-Feb-02 16:30N 52°25' E 004°45'0 0.0
2018-Feb-02 15:28N 52°25' E 004°45'0 0.0
2018-Feb-02 14:31N 52°25' E 004°45'0 0.0
2018-Feb-02 13:59N 52°25' E 004°45'0 0.0
2018-Feb-02 13:28N 52°25' E 004°45'0 0.0
2018-Feb-02 12:59N 52°25' E 004°45'0 0.0
2018-Feb-02 12:29N 52°25' E 004°45'0 0.0
2018-Feb-02 11:57N 52°25' E 004°45'0 0.0
2018-Feb-02 11:25N 52°25' E 004°45'0 0.0
2018-Feb-02 10:54N 52°25' E 004°45'0 0.0
2018-Feb-02 10:30N 52°25' E 004°45'0 0.0
2018-Feb-02 09:59N 52°25' E 004°45'0 0.0
2018-Feb-02 09:29N 52°25' E 004°45'0 0.0
2018-Feb-02 09:00N 52°25' E 004°45'0 0.0
2018-Feb-02 08:31N 52°25' E 004°45'0 0.0
2018-Feb-02 07:59N 52°25' E 004°45'0 0.0
2018-Feb-02 07:31N 52°25' E 004°45'0 0.0
2018-Feb-02 07:00N 52°25' E 004°45'0 0.0
2018-Feb-02 06:30N 52°25' E 004°45'0 0.0
2018-Feb-02 06:01N 52°25' E 004°45'0 0.0
2018-Feb-02 05:31N 52°25' E 004°45'0 0.0
2018-Feb-02 05:01N 52°25' E 004°45'0 0.0
2018-Feb-02 04:29N 52°25' E 004°45'0 0.0
2018-Feb-02 03:57N 52°25' E 004°45'0 0.0
2018-Feb-02 03:30N 52°25' E 004°45'0 0.0
2018-Feb-02 02:59N 52°25' E 004°45'0 0.0
2018-Feb-02 02:30N 52°25' E 004°45'0 0.0
2018-Feb-02 02:01N 52°25' E 004°45'0 0.0
2018-Feb-02 01:30N 52°25' E 004°45'0 0.0
2018-Feb-02 01:00N 52°25' E 004°45'0 0.0
2018-Feb-02 00:31N 52°25' E 004°45'0 0.0
2018-Feb-01 23:58N 52°25' E 004°45'0 0.0
2018-Feb-01 23:30N 52°25' E 004°45'0 0.0
2018-Feb-01 23:01N 52°25' E 004°45'0 0.0
2018-Feb-01 22:00N 52°25' E 004°45'0 0.0
2018-Feb-01 21:31N 52°25' E 004°45'0 0.0
2018-Feb-01 19:30N 52°25' E 004°45'0 0.0
2018-Feb-01 19:01N 52°25' E 004°45'0 0.0
2018-Feb-01 18:30N 52°25' E 004°45'0 0.0
2018-Feb-01 18:00N 52°25' E 004°45'0 0.0
2018-Feb-01 17:30N 52°25' E 004°45'0 0.0
2018-Feb-01 17:00N 52°25' E 004°45'0 0.0
2018-Feb-01 16:26N 52°25' E 004°45'0 0.0
2018-Feb-01 16:00N 52°25' E 004°45'0 0.0
2018-Feb-01 15:29N 52°25' E 004°45'0 0.0
2018-Feb-01 15:00N 52°25' E 004°45'0 0.0
2018-Feb-01 13:31N 52°25' E 004°45'0 0.0
2018-Feb-01 12:59N 52°25' E 004°45'0 0.0
2018-Feb-01 12:29N 52°25' E 004°45'0 0.0
2018-Feb-01 12:00N 52°25' E 004°45'0 0.0
2018-Feb-01 10:58N 52°25' E 004°45'0 0.0
2018-Feb-01 10:27N 52°25' E 004°45'0 0.0
2018-Feb-01 09:57N 52°25' E 004°45'0 0.0
2018-Feb-01 09:30N 52°25' E 004°45'0 0.0
2018-Feb-01 09:01N 52°25' E 004°45'0 0.0
2018-Feb-01 08:30N 52°25' E 004°45'0 0.0
2018-Feb-01 07:30N 52°25' E 004°45'0 0.0
2018-Feb-01 07:00N 52°25' E 004°45'0 0.0
2018-Feb-01 06:30N 52°25' E 004°45'0 0.0
2018-Feb-01 05:59N 52°25' E 004°45'0 0.0
2018-Feb-01 05:25N 52°25' E 004°45'0 0.0
2018-Feb-01 04:59N 52°25' E 004°45'0 0.0
2018-Feb-01 04:29N 52°25' E 004°45'0 0.0
2018-Feb-01 04:00N 52°25' E 004°45'0 0.0
2018-Feb-01 02:57N 52°25' E 004°45'0 0.0
2018-Feb-01 02:30N 52°25' E 004°45'0 0.0
2018-Feb-01 02:00N 52°25' E 004°45'0 0.0
2018-Feb-01 01:30N 52°25' E 004°45'0 0.0
2018-Feb-01 00:58N 52°25' E 004°45'0 0.0
2018-Feb-01 00:29N 52°25' E 004°45'0 0.0
2018-Feb-01 00:00N 52°25' E 004°45'0 0.0
2018-Jan-31 23:00N 52°25' E 004°45'0 0.0
2018-Jan-31 22:30N 52°25' E 004°45'0 0.0
2018-Jan-31 21:00N 52°25' E 004°45'0 0.0
2018-Jan-31 20:30N 52°25' E 004°45'0 0.0
2018-Jan-31 20:00N 52°25' E 004°45'0 0.0
2018-Jan-31 19:30N 52°25' E 004°45'0 0.0
2018-Jan-31 18:54N 52°25' E 004°45'0 0.0
2018-Jan-31 18:30N 52°25' E 004°45'0 0.0
2018-Jan-31 18:00N 52°25' E 004°45'0 0.0
2018-Jan-31 17:29N 52°25' E 004°45'0 0.0
2018-Jan-31 17:01N 52°25' E 004°45'0 0.0
2018-Jan-31 16:31N 52°25' E 004°45'0 0.0
2018-Jan-31 15:59N 52°25' E 004°45'0 0.0
2018-Jan-31 15:30N 52°25' E 004°45'0 0.0
2018-Jan-31 15:00N 52°25' E 004°45'0 0.0
2018-Jan-31 14:30N 52°25' E 004°45'0 0.0
2018-Jan-31 13:00N 52°25' E 004°45'0 0.0
2018-Jan-31 12:30N 52°25' E 004°45'0 0.0
2018-Jan-31 12:00N 52°25' E 004°45'0 0.0
2018-Jan-31 11:30N 52°25' E 004°45'0 0.0
2018-Jan-31 10:55N 52°25' E 004°45'0 0.0
2018-Jan-31 10:29N 52°25' E 004°45'0 0.0
2018-Jan-31 10:00N 52°25' E 004°45'0 0.0
2018-Jan-31 09:23N 52°25' E 004°45'0 0.0
2018-Jan-31 08:59N 52°25' E 004°45'0 0.0
2018-Jan-31 08:29N 52°25' E 004°45'0 0.0
2018-Jan-31 08:00N 52°25' E 004°45'0 0.0
2018-Jan-31 07:29N 52°25' E 004°45'0 0.0
2018-Jan-31 06:59N 52°25' E 004°45'0 0.0
2018-Jan-31 06:29N 52°25' E 004°45'0 0.0
2018-Jan-31 05:53N 52°25' E 004°45'0 0.0
2018-Jan-31 05:30N 52°25' E 004°45'0 0.0
2018-Jan-31 04:59N 52°25' E 004°45'0 0.0
2018-Jan-31 04:27N 52°25' E 004°45'0 0.0
2018-Jan-31 03:59N 52°25' E 004°45'0 0.0
2018-Jan-31 03:31N 52°25' E 004°45'0 0.0
2018-Jan-31 03:00N 52°25' E 004°45'0 0.0
2018-Jan-31 02:31N 52°25' E 004°45'0 0.0
2018-Jan-31 02:00N 52°25' E 004°45'0 0.0
2018-Jan-31 01:29N 52°25' E 004°45'0 0.0
2018-Jan-31 01:00N 52°25' E 004°45'0 0.0
2018-Jan-30 23:59N 52°25' E 004°45'0 0.0
2018-Jan-30 23:30N 52°25' E 004°45'0 0.0
2018-Jan-30 23:01N 52°25' E 004°45'0 0.0
2018-Jan-30 22:30N 52°25' E 004°45'0 0.0
2018-Jan-30 21:27N 52°25' E 004°45'0 0.0
2018-Jan-30 21:00N 52°25' E 004°45'0 0.0
2018-Jan-30 20:30N 52°25' E 004°45'0 0.0
2018-Jan-30 19:59N 52°25' E 004°45'0 0.0
2018-Jan-30 19:30N 52°25' E 004°45'0 0.0
2018-Jan-30 19:00N 52°25' E 004°45'0 0.0
2018-Jan-30 18:30N 52°25' E 004°45'0 0.0
2018-Jan-30 18:00N 52°25' E 004°45'0 0.0
2018-Jan-30 17:30N 52°25' E 004°45'0 0.0
2018-Jan-30 17:00N 52°25' E 004°45'0 0.0
2018-Jan-30 16:29N 52°25' E 004°45'0 0.0
2018-Jan-30 16:00N 52°25' E 004°45'0 0.0
2018-Jan-30 15:30N 52°25' E 004°45'0 0.0
2018-Jan-30 15:00N 52°25' E 004°45'0 0.0
2018-Jan-30 14:30N 52°25' E 004°45'0 0.0
2018-Jan-30 13:31N 52°25' E 004°45'0 0.0
2018-Jan-30 12:59N 52°25' E 004°45'0 0.0
2018-Jan-30 12:30N 52°25' E 004°45'0 0.0
2018-Jan-30 11:56N 52°25' E 004°45'0 0.0
2018-Jan-30 11:30N 52°25' E 004°45'0 0.0
2018-Jan-30 10:30N 52°25' E 004°45'0 0.0
2018-Jan-30 09:30N 52°25' E 004°45'0 0.0
2018-Jan-30 09:01N 52°25' E 004°45'0 0.0
2018-Jan-30 08:29N 52°25' E 004°45'0 0.0
2018-Jan-30 08:00N 52°25' E 004°45'0 0.0
2018-Jan-30 07:28N 52°25' E 004°45'0 0.0
2018-Jan-30 07:00N 52°25' E 004°45'0 0.0
2018-Jan-30 06:30N 52°25' E 004°45'0 0.0
2018-Jan-30 06:00N 52°25' E 004°45'0 0.0
2018-Jan-30 05:30N 52°25' E 004°45'0 0.0
2018-Jan-30 05:00N 52°25' E 004°45'0 0.0
2018-Jan-30 04:30N 52°25' E 004°45'0 0.0
2018-Jan-30 04:00N 52°25' E 004°45'0 0.0
2018-Jan-30 03:30N 52°25' E 004°45'0 0.0
2018-Jan-30 03:01N 52°25' E 004°45'  
Track history (hours):
 
Tides and Currents Weather Stations Pressure Air Temp Water Temp Dewpoint Dewpoint Depression Visibility Wind Speed Wind Dir Waves Ship Positions

Walleye

Last reported at 2018-Feb-09 02:30 UTC. Time now 2018-Feb-17 21:16 UTC.
Position N 28°30' W 015°52'.
Warning: this ship's position is 8 days out of date.

Length 228 m; draft 13 m.

Type: Tanker. MMSI: 538005764.

Date/timePositionNaut miles runAvg speedWind from/ knotsBaromVisibWave heightAir tempDewpointWater temp
2018-Feb-09 02:30N 28°30' W 015°52'1912.5
2018-Feb-09 01:00N 28°45' W 015°39'1312.6
2018-Feb-09 00:00N 28°56' W 015°33'  
2018-Feb-04 04:38N 49°46' W 003°39'213.5
2018-Feb-04 04:30N 49°47' W 003°36'714.0
2018-Feb-04 04:00N 49°51' W 003°27'714.5
2018-Feb-04 03:30N 49°55' W 003°18'714.8
2018-Feb-04 03:00N 49°58' W 003°07'714.4
2018-Feb-04 02:30N 49°59' W 002°56'714.2
2018-Feb-04 02:01N 50°01' W 002°46'713.5
2018-Feb-04 01:30N 50°03' W 002°35'2910.6
2018-Feb-03 22:49N 50°10' W 001°52'3 8.6
2018-Feb-03 22:30N 50°11' W 001°48'4 8.5
2018-Feb-03 22:00N 50°12' W 001°42'4 8.7
2018-Feb-03 21:30N 50°13' W 001°35'5 9.2
2018-Feb-03 21:00N 50°14' W 001°28'510.1
2018-Feb-03 20:29N 50°16' W 001°21'3213.4
2018-Feb-03 18:05N 50°25' W 000°32'215.1
2018-Feb-03 17:56N 50°25' W 000°29'614.7
2018-Feb-03 17:30N 50°27' W 000°19'714.5
2018-Feb-03 17:00N 50°29' W 000°08'1414.2
2018-Feb-03 16:00N 50°33' E 000°13'713.7
2018-Feb-03 15:30N 50°35' E 000°24'713.0
2018-Feb-03 15:00N 50°36' E 000°33'612.3
2018-Feb-03 14:30N 50°39' E 000°42'611.7
2018-Feb-03 14:00N 50°43' E 000°49'510.9
2018-Feb-03 13:30N 50°46' E 000°56'710.5
2018-Feb-03 12:51N 50°50' E 001°05'410.5
2018-Feb-03 12:27N 50°53' E 001°10'510.4
2018-Feb-03 12:00N 50°56' E 001°15'510.8
2018-Feb-03 11:30N 51°01' E 001°21'612.7
2018-Feb-03 11:01N 51°04' E 001°29'714.4
2018-Feb-03 10:31N 51°09' E 001°37'714.7
2018-Feb-03 10:01N 51°14' E 001°46'714.6
2018-Feb-03 09:31N 51°20' E 001°51'713.9
2018-Feb-03 09:00N 51°26' E 001°57'713.2
2018-Feb-03 08:30N 51°32' E 002°03'612.9
2018-Feb-03 08:00N 51°36' E 002°10'5011.0
2018-Feb-03 03:25N 52°15' E 003°04'1511.0
2018-Feb-03 02:00N 52°26' E 003°20'2311.5
2018-Feb-03 00:03N 52°31' E 003°56'112.2
2018-Feb-02 23:57N 52°31' E 003°58'512.3
2018-Feb-02 23:30N 52°31' E 004°07'611.7
2018-Feb-02 23:00N 52°30' E 004°17'510.6
2018-Feb-02 22:30N 52°29' E 004°25'4 8.8
2018-Feb-02 22:00N 52°28' E 004°32'3 5.4
2018-Feb-02 21:30N 52°28' E 004°36'0 0.3
2018-Feb-02 21:01N 52°28' E 004°37'2 3.4
2018-Feb-02 20:30N 52°28' E 004°39'4 7.2
2018-Feb-02 20:01N 52°26' E 004°44'1 1.1
2018-Feb-02 18:59N 52°25' E 004°45'0 0.0
2018-Feb-02 18:26N 52°25' E 004°45'0 0.0
2018-Feb-02 18:01N 52°25' E 004°45'0 0.0
2018-Feb-02 17:31N 52°25' E 004°45'0 0.0
2018-Feb-02 16:59N 52°25' E 004°45'0 0.0
2018-Feb-02 16:30N 52°25' E 004°45'0 0.0
2018-Feb-02 15:28N 52°25' E 004°45'0 0.0
2018-Feb-02 14:31N 52°25' E 004°45'0 0.0
2018-Feb-02 13:59N 52°25' E 004°45'0 0.0
2018-Feb-02 13:28N 52°25' E 004°45'0 0.0
2018-Feb-02 12:59N 52°25' E 004°45'0 0.0
2018-Feb-02 12:29N 52°25' E 004°45'0 0.0
2018-Feb-02 11:57N 52°25' E 004°45'0 0.0
2018-Feb-02 11:25N 52°25' E 004°45'0 0.0
2018-Feb-02 10:54N 52°25' E 004°45'0 0.0
2018-Feb-02 10:30N 52°25' E 004°45'0 0.0
2018-Feb-02 09:59N 52°25' E 004°45'0 0.0
2018-Feb-02 09:29N 52°25' E 004°45'0 0.0
2018-Feb-02 09:00N 52°25' E 004°45'0 0.0
2018-Feb-02 08:31N 52°25' E 004°45'0 0.0
2018-Feb-02 07:59N 52°25' E 004°45'0 0.0
2018-Feb-02 07:31N 52°25' E 004°45'0 0.0
2018-Feb-02 07:00N 52°25' E 004°45'0 0.0
2018-Feb-02 06:30N 52°25' E 004°45'0 0.0
2018-Feb-02 06:01N 52°25' E 004°45'0 0.0
2018-Feb-02 05:31N 52°25' E 004°45'0 0.0
2018-Feb-02 05:01N 52°25' E 004°45'0 0.0
2018-Feb-02 04:29N 52°25' E 004°45'0 0.0
2018-Feb-02 03:57N 52°25' E 004°45'0 0.0
2018-Feb-02 03:30N 52°25' E 004°45'0 0.0
2018-Feb-02 02:59N 52°25' E 004°45'0 0.0
2018-Feb-02 02:30N 52°25' E 004°45'0 0.0
2018-Feb-02 02:01N 52°25' E 004°45'0 0.0
2018-Feb-02 01:30N 52°25' E 004°45'0 0.0
2018-Feb-02 01:00N 52°25' E 004°45'0 0.0
2018-Feb-02 00:31N 52°25' E 004°45'0 0.0
2018-Feb-01 23:58N 52°25' E 004°45'0 0.0
2018-Feb-01 23:30N 52°25' E 004°45'0 0.0
2018-Feb-01 23:01N 52°25' E 004°45'0 0.0
2018-Feb-01 22:00N 52°25' E 004°45'0 0.0
2018-Feb-01 21:31N 52°25' E 004°45'0 0.0
2018-Feb-01 19:30N 52°25' E 004°45'0 0.0
2018-Feb-01 19:01N 52°25' E 004°45'0 0.0
2018-Feb-01 18:30N 52°25' E 004°45'0 0.0
2018-Feb-01 18:00N 52°25' E 004°45'0 0.0
2018-Feb-01 17:30N 52°25' E 004°45'0 0.0
2018-Feb-01 17:00N 52°25' E 004°45'0 0.0
2018-Feb-01 16:26N 52°25' E 004°45'0 0.0
2018-Feb-01 16:00N 52°25' E 004°45'0 0.0
2018-Feb-01 15:29N 52°25' E 004°45'0 0.0
2018-Feb-01 15:00N 52°25' E 004°45'0 0.0
2018-Feb-01 13:31N 52°25' E 004°45'0 0.0
2018-Feb-01 12:59N 52°25' E 004°45'0 0.0
2018-Feb-01 12:29N 52°25' E 004°45'0 0.0
2018-Feb-01 12:00N 52°25' E 004°45'0 0.0
2018-Feb-01 10:58N 52°25' E 004°45'0 0.0
2018-Feb-01 10:27N 52°25' E 004°45'0 0.0
2018-Feb-01 09:57N 52°25' E 004°45'0 0.0
2018-Feb-01 09:30N 52°25' E 004°45'0 0.0
2018-Feb-01 09:01N 52°25' E 004°45'0 0.0
2018-Feb-01 08:30N 52°25' E 004°45'0 0.0
2018-Feb-01 07:30N 52°25' E 004°45'0 0.0
2018-Feb-01 07:00N 52°25' E 004°45'0 0.0
2018-Feb-01 06:30N 52°25' E 004°45'0 0.0
2018-Feb-01 05:59N 52°25' E 004°45'0 0.0
2018-Feb-01 05:25N 52°25' E 004°45'0 0.0
2018-Feb-01 04:59N 52°25' E 004°45'0 0.0
2018-Feb-01 04:29N 52°25' E 004°45'0 0.0
2018-Feb-01 04:00N 52°25' E 004°45'0 0.0
2018-Feb-01 02:57N 52°25' E 004°45'0 0.0
2018-Feb-01 02:30N 52°25' E 004°45'0 0.0
2018-Feb-01 02:00N 52°25' E 004°45'0 0.0
2018-Feb-01 01:30N 52°25' E 004°45'0 0.0
2018-Feb-01 00:58N 52°25' E 004°45'0 0.0
2018-Feb-01 00:29N 52°25' E 004°45'0 0.0
2018-Feb-01 00:00N 52°25' E 004°45'0 0.0
2018-Jan-31 23:00N 52°25' E 004°45'0 0.0
2018-Jan-31 22:30N 52°25' E 004°45'0 0.0
2018-Jan-31 21:00N 52°25' E 004°45'0 0.0
2018-Jan-31 20:30N 52°25' E 004°45'0 0.0
2018-Jan-31 20:00N 52°25' E 004°45'0 0.0
2018-Jan-31 19:30N 52°25' E 004°45'0 0.0
2018-Jan-31 18:54N 52°25' E 004°45'0 0.0
2018-Jan-31 18:30N 52°25' E 004°45'0 0.0
2018-Jan-31 18:00N 52°25' E 004°45'0 0.0
2018-Jan-31 17:29N 52°25' E 004°45'0 0.0
2018-Jan-31 17:01N 52°25' E 004°45'0 0.0
2018-Jan-31 16:31N 52°25' E 004°45'0 0.0
2018-Jan-31 15:59N 52°25' E 004°45'0 0.0
2018-Jan-31 15:30N 52°25' E 004°45'0 0.0
2018-Jan-31 15:00N 52°25' E 004°45'0 0.0
2018-Jan-31 14:30N 52°25' E 004°45'0 0.0
2018-Jan-31 13:00N 52°25' E 004°45'0 0.0
2018-Jan-31 12:30N 52°25' E 004°45'0 0.0
2018-Jan-31 12:00N 52°25' E 004°45'0 0.0
2018-Jan-31 11:30N 52°25' E 004°45'0 0.0
2018-Jan-31 10:55N 52°25' E 004°45'0 0.0
2018-Jan-31 10:29N 52°25' E 004°45'0 0.0
2018-Jan-31 10:00N 52°25' E 004°45'0 0.0
2018-Jan-31 09:23N 52°25' E 004°45'0 0.0
2018-Jan-31 08:59N 52°25' E 004°45'0 0.0
2018-Jan-31 08:29N 52°25' E 004°45'0 0.0
2018-Jan-31 08:00N 52°25' E 004°45'0 0.0
2018-Jan-31 07:29N 52°25' E 004°45'0 0.0
2018-Jan-31 06:59N 52°25' E 004°45'0 0.0
2018-Jan-31 06:29N 52°25' E 004°45'0 0.0
2018-Jan-31 05:53N 52°25' E 004°45'0 0.0
2018-Jan-31 05:30N 52°25' E 004°45'0 0.0
2018-Jan-31 04:59N 52°25' E 004°45'0 0.0
2018-Jan-31 04:27N 52°25' E 004°45'0 0.0
2018-Jan-31 03:59N 52°25' E 004°45'0 0.0
2018-Jan-31 03:31N 52°25' E 004°45'0 0.0
2018-Jan-31 03:00N 52°25' E 004°45'0 0.0
2018-Jan-31 02:31N 52°25' E 004°45'0 0.0
2018-Jan-31 02:00N 52°25' E 004°45'0 0.0
2018-Jan-31 01:29N 52°25' E 004°45'0 0.0
2018-Jan-31 01:00N 52°25' E 004°45'0 0.0
2018-Jan-30 23:59N 52°25' E 004°45'0 0.0
2018-Jan-30 23:30N 52°25' E 004°45'0 0.0
2018-Jan-30 23:01N 52°25' E 004°45'0 0.0
2018-Jan-30 22:30N 52°25' E 004°45'0 0.0
2018-Jan-30 21:27N 52°25' E 004°45'0 0.0
2018-Jan-30 21:00N 52°25' E 004°45'0 0.0
2018-Jan-30 20:30N 52°25' E 004°45'0 0.0
2018-Jan-30 19:59N 52°25' E 004°45'0 0.0
2018-Jan-30 19:30N 52°25' E 004°45'0 0.0
2018-Jan-30 19:00N 52°25' E 004°45'0 0.0
2018-Jan-30 18:30N 52°25' E 004°45'0 0.0
2018-Jan-30 18:00N 52°25' E 004°45'0 0.0
2018-Jan-30 17:30N 52°25' E 004°45'0 0.0
2018-Jan-30 17:00N 52°25' E 004°45'0 0.0
2018-Jan-30 16:29N 52°25' E 004°45'0 0.0
2018-Jan-30 16:00N 52°25' E 004°45'0 0.0
2018-Jan-30 15:30N 52°25' E 004°45'0 0.0
2018-Jan-30 15:00N 52°25' E 004°45'0 0.0
2018-Jan-30 14:30N 52°25' E 004°45'0 0.0
2018-Jan-30 13:31N 52°25' E 004°45'0 0.0
2018-Jan-30 12:59N 52°25' E 004°45'0 0.0
2018-Jan-30 12:30N 52°25' E 004°45'0 0.0
2018-Jan-30 11:56N 52°25' E 004°45'0 0.0
2018-Jan-30 11:30N 52°25' E 004°45'0 0.0
2018-Jan-30 10:30N 52°25' E 004°45'0 0.0
2018-Jan-30 09:30N 52°25' E 004°45'0 0.0
2018-Jan-30 09:01N 52°25' E 004°45'0 0.0
2018-Jan-30 08:29N 52°25' E 004°45'0 0.0
2018-Jan-30 08:00N 52°25' E 004°45'0 0.0
2018-Jan-30 07:28N 52°25' E 004°45'0 0.0
2018-Jan-30 07:00N 52°25' E 004°45'0 0.0
2018-Jan-30 06:30N 52°25' E 004°45'0 0.0
2018-Jan-30 06:00N 52°25' E 004°45'0 0.0
2018-Jan-30 05:30N 52°25' E 004°45'0 0.0
2018-Jan-30 05:00N 52°25' E 004°45'0 0.0
2018-Jan-30 04:30N 52°25' E 004°45'0 0.0
2018-Jan-30 04:00N 52°25' E 004°45'0 0.0
2018-Jan-30 03:30N 52°25' E 004°45'0 0.0
2018-Jan-30 03:01N 52°25' E 004°45'  

Dump ship's entire track history